Time;durP1;ratioP1;P1;durP2;ratioP2;P2;SDS_P1;SDS_P2;PMS_P1;PMS_P2;Temp;Humidity;BMP_temperature;BMP_pressure;BME280_temperature;BME280_humidity;BME280_pressure;Samples;Min_cycle;Max_cycle;Signal;HPM_P1;HPM_P2
2020/12/26 00:02:06;;;;;;;12.70;7.47;;;;;;;;;;5070447;28;20074;-77
2020/12/26 00:04:51;;;;;;;12.25;7.22;;;;;;;;;;5070016;28;20039;-77
2020/12/26 00:07:37;;;;;;;13.85;7.32;;;;;;;;;;5072499;28;20082;-77
2020/12/26 00:10:22;;;;;;;13.15;7.90;;;;;;;;;;5070239;28;20429;-78
2020/12/26 00:13:08;;;;;;;12.32;7.65;;;;;;;;;;5072503;28;20056;-78
2020/12/26 00:15:53;;;;;;;11.65;6.82;;;;;;;;;;5069644;28;20039;-79
2020/12/26 00:18:38;;;;;;;13.20;7.68;;;;;;;;;;5046313;28;20021;-77
2020/12/26 00:21:23;;;;;;;18.00;9.38;;;;;;;;;;5050111;28;20449;-78
2020/12/26 00:24:09;;;;;;;11.52;6.60;;;;;;;;;;5052425;28;20453;-77
2020/12/26 00:26:57;;;;;;;12.48;6.55;;;;;;;;;;5068951;28;20111;-77
2020/12/26 00:29:42;;;;;;;12.85;6.93;;;;;;;;;;5072194;28;20362;-78
2020/12/26 00:32:27;;;;;;;13.32;7.30;;;;;;;;;;5072106;28;20076;-77
2020/12/26 00:35:13;;;;;;;12.45;6.97;;;;;;;;;;5069597;28;20027;-79
2020/12/26 00:37:58;;;;;;;24.60;9.45;;;;;;;;;;5071367;28;20744;-78
2020/12/26 00:40:43;;;;;;;13.27;7.38;;;;;;;;;;5045298;28;20028;-79
2020/12/26 00:43:28;;;;;;;12.13;6.93;;;;;;;;;;5071935;28;20139;-78
2020/12/26 00:46:13;;;;;;;11.82;7.00;;;;;;;;;;5061912;28;20042;-77
2020/12/26 00:48:59;;;;;;;15.45;7.45;;;;;;;;;;5051645;28;20078;-78
2020/12/26 00:51:46;;;;;;;15.05;7.40;;;;;;;;;;5049019;28;20094;-77
2020/12/26 00:54:32;;;;;;;14.00;8.32;;;;;;;;;;5051311;28;20435;-78
2020/12/26 00:57:17;;;;;;;13.73;7.70;;;;;;;;;;5048669;28;20166;-79
2020/12/26 01:00:06;;;;;;;12.88;8.10;;;;;;;;;;5052633;28;20363;-78
2020/12/26 01:02:56;;;;;;;13.95;8.30;;;;;;;;;;5053072;28;20039;-79
2020/12/26 01:05:44;;;;;;;15.82;8.38;;;;;;;;;;5051174;28;20366;-78
2020/12/26 01:08:30;;;;;;;15.90;8.30;;;;;;;;;;5048093;28;20442;-79
2020/12/26 01:11:15;;;;;;;17.55;8.13;;;;;;;;;;5050959;28;20028;-76
2020/12/26 01:14:00;;;;;;;15.65;8.48;;;;;;;;;;5045315;28;20067;-77
2020/12/26 01:16:49;;;;;;;14.55;9.02;;;;;;;;;;5038858;28;20028;-76
2020/12/26 01:19:35;;;;;;;17.33;9.32;;;;;;;;;;5071095;28;20024;-77
2020/12/26 01:22:20;;;;;;;21.20;9.35;;;;;;;;;;5068651;28;20031;-77
2020/12/26 01:25:05;;;;;;;14.43;8.43;;;;;;;;;;5071385;28;20036;-77
2020/12/26 01:27:50;;;;;;;14.73;7.80;;;;;;;;;;5061333;28;20024;-78
2020/12/26 01:30:36;;;;;;;18.05;8.48;;;;;;;;;;5050978;28;20020;-79
2020/12/26 01:33:21;;;;;;;17.45;9.60;;;;;;;;;;5048507;28;20482;-78
2020/12/26 01:36:09;;;;;;;16.23;8.10;;;;;;;;;;5050735;28;20028;-77
2020/12/26 01:38:55;;;;;;;12.77;7.20;;;;;;;;;;5048447;28;20032;-77
2020/12/26 01:41:40;;;;;;;15.25;8.40;;;;;;;;;;5050785;28;20078;-77
2020/12/26 01:44:25;;;;;;;11.23;6.63;;;;;;;;;;5048381;28;20052;-78
2020/12/26 01:47:12;;;;;;;13.93;7.97;;;;;;;;;;5050753;28;20036;-78
2020/12/26 01:49:59;;;;;;;14.05;7.60;;;;;;;;;;5048578;28;20036;-78
2020/12/26 01:52:44;;;;;;;14.85;8.18;;;;;;;;;;5054222;28;20039;-78
2020/12/26 01:55:30;;;;;;;17.23;8.27;;;;;;;;;;5070398;28;20035;-78
2020/12/26 01:58:15;;;;;;;20.42;9.63;;;;;;;;;;5051620;28;20483;-78
2020/12/26 02:01:01;;;;;;;13.52;8.13;;;;;;;;;;5070305;28;20382;-78
2020/12/26 02:03:46;;;;;;;17.10;9.38;;;;;;;;;;5067848;28;20055;-77
2020/12/26 02:06:50;;;;;;;14.45;7.65;;;;;;;;;;5070707;28;20183;-76
2020/12/26 02:09:35;;;;;;;17.38;8.20;;;;;;;;;;5061091;28;20467;-79
2020/12/26 02:12:20;;;;;;;16.70;9.07;;;;;;;;;;5070146;28;20623;-77
2020/12/26 02:15:05;;;;;;;17.33;8.50;;;;;;;;;;5067611;28;20474;-78
2020/12/26 02:17:51;;;;;;;15.63;8.68;;;;;;;;;;5049401;28;20032;-76
2020/12/26 02:20:36;;;;;;;17.95;10.00;;;;;;;;;;5047713;28;20115;-77
2020/12/26 02:23:21;;;;;;;18.92;9.40;;;;;;;;;;5050396;28;20020;-77
2020/12/26 02:26:07;;;;;;;15.02;9.20;;;;;;;;;;5061867;28;20016;-76
2020/12/26 02:28:52;;;;;;;16.63;8.77;;;;;;;;;;5070237;28;20024;-76
2020/12/26 02:31:37;;;;;;;16.30;9.43;;;;;;;;;;5067634;28;20063;-79
2020/12/26 02:34:23;;;;;;;15.93;8.77;;;;;;;;;;5070515;28;20047;-77
2020/12/26 02:37:08;;;;;;;16.85;9.52;;;;;;;;;;5070013;28;20028;-78
2020/12/26 02:39:53;;;;;;;17.40;9.50;;;;;;;;;;5026303;28;20546;-77
2020/12/26 02:42:38;;;;;;;17.95;9.15;;;;;;;;;;5070202;28;20032;-76
2020/12/26 02:45:23;;;;;;;13.40;7.57;;;;;;;;;;5064870;28;20012;-77
2020/12/26 02:48:09;;;;;;;16.00;7.70;;;;;;;;;;5050005;28;20032;-77
2020/12/26 02:50:55;;;;;;;22.60;10.85;;;;;;;;;;5053240;28;20035;-77
2020/12/26 02:53:40;;;;;;;18.08;9.27;;;;;;;;;;5064490;28;20365;-78
2020/12/26 02:56:25;;;;;;;14.65;8.35;;;;;;;;;;5047525;28;20025;-78
2020/12/26 02:59:13;;;;;;;17.38;9.20;;;;;;;;;;5049969;28;20070;-78
2020/12/26 03:01:58;;;;;;;16.05;8.82;;;;;;;;;;5078615;28;20428;-78
2020/12/26 03:04:48;;;;;;;17.25;9.55;;;;;;;;;;5069598;28;20525;-77
2020/12/26 03:07:34;;;;;;;16.92;8.60;;;;;;;;;;5051997;28;20654;-77
2020/12/26 03:10:19;;;;;;;19.63;9.23;;;;;;;;;;5049915;28;20028;-78
2020/12/26 03:13:04;;;;;;;18.33;9.57;;;;;;;;;;5047447;28;20029;-77
2020/12/26 03:15:50;;;;;;;22.70;10.65;;;;;;;;;;5049546;28;20218;-78
2020/12/26 03:18:35;;;;;;;17.35;9.75;;;;;;;;;;5060889;28;20033;-77
2020/12/26 03:21:20;;;;;;;18.33;9.88;;;;;;;;;;5063413;28;20023;-77
2020/12/26 03:24:05;;;;;;;18.90;9.13;;;;;;;;;;5029757;28;20095;-77
2020/12/26 03:26:51;;;;;;;17.38;10.30;;;;;;;;;;5032324;28;20125;-76
2020/12/26 03:29:36;;;;;;;18.17;9.50;;;;;;;;;;5069404;28;20020;-78
2020/12/26 03:32:24;;;;;;;17.42;9.45;;;;;;;;;;5068664;28;20093;-77
2020/12/26 03:35:09;;;;;;;20.05;8.88;;;;;;;;;;5073356;28;20433;-77
2020/12/26 03:37:57;;;;;;;19.67;10.15;;;;;;;;;;5068932;28;20487;-77
2020/12/26 03:40:42;;;;;;;21.20;11.40;;;;;;;;;;5073111;28;20028;-77
2020/12/26 03:43:28;;;;;;;17.17;10.48;;;;;;;;;;5064604;28;20036;-77
2020/12/26 03:46:13;;;;;;;24.17;10.93;;;;;;;;;;5071868;28;20032;-79
2020/12/26 03:48:58;;;;;;;20.48;8.80;;;;;;;;;;5067347;28;20086;-77
2020/12/26 03:51:43;;;;;;;16.27;8.07;;;;;;;;;;5052438;28;20020;-77
2020/12/26 03:54:28;;;;;;;19.40;8.70;;;;;;;;;;5050684;28;20033;-77
2020/12/26 03:57:14;;;;;;;20.10;9.93;;;;;;;;;;5051852;28;20029;-79
2020/12/26 03:59:59;;;;;;;14.85;8.93;;;;;;;;;;5050669;28;20028;-78
2020/12/26 04:02:45;;;;;;;19.38;9.70;;;;;;;;;;5072523;28;20020;-77
2020/12/26 04:05:30;;;;;;;19.23;9.63;;;;;;;;;;5072607;28;20321;-76
2020/12/26 04:08:15;;;;;;;16.80;9.07;;;;;;;;;;5070811;28;20366;-78
2020/12/26 04:11:00;;;;;;;22.80;10.05;;;;;;;;;;5072639;28;20022;-78
2020/12/26 04:13:45;;;;;;;17.13;9.95;;;;;;;;;;5069977;28;20073;-77
2020/12/26 04:16:31;;;;;;;17.58;9.70;;;;;;;;;;5066766;28;20020;-78
2020/12/26 04:19:16;;;;;;;17.85;8.68;;;;;;;;;;5055404;28;20044;-77
2020/12/26 04:22:01;;;;;;;18.50;8.23;;;;;;;;;;5072478;28;20026;-78
2020/12/26 04:24:49;;;;;;;17.05;9.48;;;;;;;;;;5061600;28;20035;-79
2020/12/26 04:27:35;;;;;;;17.52;8.68;;;;;;;;;;5052165;28;20242;-77
2020/12/26 04:30:27;;;;;;;19.30;9.82;;;;;;;;;;5049375;28;20024;-79
2020/12/26 04:33:12;;;;;;;22.08;9.32;;;;;;;;;;5052101;28;20671;-77
2020/12/26 04:35:58;;;;;;;18.85;9.75;;;;;;;;;;5049626;28;20113;-77
2020/12/26 04:38:43;;;;;;;19.17;8.52;;;;;;;;;;5051476;28;20017;-77
2020/12/26 04:41:28;;;;;;;23.67;11.73;;;;;;;;;;5060346;28;20111;-77
2020/12/26 04:44:14;;;;;;;17.17;9.32;;;;;;;;;;5069746;28;20047;-78
2020/12/26 04:47:04;;;;;;;19.33;10.40;;;;;;;;;;5069564;28;20371;-78
2020/12/26 04:49:50;;;;;;;20.52;10.25;;;;;;;;;;5041275;28;20321;-77
2020/12/26 04:52:36;;;;;;;17.52;9.32;;;;;;;;;;5071626;28;20032;-77
2020/12/26 04:55:23;;;;;;;19.90;10.50;;;;;;;;;;5052187;28;20482;-77
2020/12/26 04:58:09;;;;;;;18.05;9.40;;;;;;;;;;5054752;28;20456;-77
2020/12/26 05:00:54;;;;;;;19.40;10.45;;;;;;;;;;5054892;28;20030;-77
2020/12/26 05:03:40;;;;;;;21.63;10.60;;;;;;;;;;5071409;28;20024;-77
2020/12/26 05:06:26;;;;;;;17.75;8.95;;;;;;;;;;5049179;28;20056;-77
2020/12/26 05:09:11;;;;;;;17.00;8.52;;;;;;;;;;5051289;28;20117;-77
2020/12/26 05:11:57;;;;;;;18.05;9.43;;;;;;;;;;5062255;28;20111;-77
2020/12/26 05:14:43;;;;;;;19.30;10.02;;;;;;;;;;5050954;28;20027;-76
2020/12/26 05:17:28;;;;;;;24.70;10.75;;;;;;;;;;5047915;28;20036;-77
2020/12/26 05:20:13;;;;;;;19.65;9.60;;;;;;;;;;5050715;28;20020;-77
2020/12/26 05:23:08;;;;;;;17.20;9.93;;;;;;;;;;5048593;28;20035;-77
2020/12/26 05:25:54;;;;;;;25.98;10.52;;;;;;;;;;5050826;28;20035;-77
2020/12/26 05:28:39;;;;;;;22.52;10.90;;;;;;;;;;5050278;28;20421;-77
2020/12/26 05:31:41;;;;;;;16.25;9.00;;;;;;;;;;5049464;28;20028;-76
2020/12/26 05:34:30;;;;;;;19.85;9.55;;;;;;;;;;5010875;28;20020;-76
2020/12/26 05:37:18;;;;;;;20.50;11.85;;;;;;;;;;5019507;28;20024;-76
2020/12/26 05:40:04;;;;;;;20.05;10.80;;;;;;;;;;5011285;28;20118;-77
2020/12/26 05:42:49;;;;;;;20.08;12.13;;;;;;;;;;5025631;28;20079;-78
2020/12/26 05:45:38;;;;;;;20.27;10.35;;;;;;;;;;5050394;28;20024;-79
2020/12/26 05:48:24;;;;;;;20.83;11.43;;;;;;;;;;5048043;28;20419;-79
2020/12/26 05:51:09;;;;;;;22.20;10.95;;;;;;;;;;5011004;28;20033;-76
2020/12/26 05:53:55;;;;;;;21.27;10.65;;;;;;;;;;5028788;28;20032;-78
2020/12/26 05:56:40;;;;;;;22.42;10.48;;;;;;;;;;5035023;28;20030;-78
2020/12/26 05:59:26;;;;;;;22.65;11.00;;;;;;;;;;5047786;28;20025;-78
2020/12/26 06:02:18;;;;;;;19.83;10.55;;;;;;;;;;5031492;28;20017;-76
2020/12/26 06:05:04;;;;;;;20.10;10.50;;;;;;;;;;5059806;28;20083;-78
2020/12/26 06:07:50;;;;;;;19.10;10.95;;;;;;;;;;5068748;28;20390;-78
2020/12/26 06:10:37;;;;;;;20.70;11.48;;;;;;;;;;5070257;28;20155;-78
2020/12/26 06:13:23;;;;;;;20.67;10.48;;;;;;;;;;5068102;28;20085;-77
2020/12/26 06:16:08;;;;;;;20.52;10.05;;;;;;;;;;5067807;28;20031;-76
2020/12/26 06:18:57;;;;;;;16.42;9.35;;;;;;;;;;5053848;28;20072;-76
2020/12/26 06:21:44;;;;;;;19.17;10.50;;;;;;;;;;5070562;28;20421;-77
2020/12/26 06:24:29;;;;;;;20.58;10.32;;;;;;;;;;5059035;28;20463;-77
2020/12/26 06:27:15;;;;;;;26.42;11.65;;;;;;;;;;5050288;28;20090;-76
2020/12/26 06:30:01;;;;;;;26.05;12.23;;;;;;;;;;5047658;28;20415;-77
2020/12/26 06:32:47;;;;;;;22.15;10.55;;;;;;;;;;5049508;28;20486;-77
2020/12/26 06:35:33;;;;;;;22.83;12.55;;;;;;;;;;5047681;28;20422;-78
2020/12/26 06:38:19;;;;;;;23.42;11.98;;;;;;;;;;5049169;28;20498;-77
2020/12/26 06:41:15;;;;;;;21.10;11.65;;;;;;;;;;5048126;28;20033;-77
2020/12/26 06:44:00;;;;;;;24.17;10.68;;;;;;;;;;5049811;28;20025;-78
2020/12/26 06:46:45;;;;;;;24.27;12.60;;;;;;;;;;5029524;28;20032;-78
2020/12/26 06:49:31;;;;;;;20.67;10.68;;;;;;;;;;5036155;28;20024;-78
2020/12/26 06:52:36;;;;;;;27.15;12.20;;;;;;;;;;5069839;28;20381;-77
2020/12/26 06:55:42;;;;;;;21.90;11.20;;;;;;;;;;5053822;28;20493;-78
2020/12/26 06:58:27;;;;;;;26.10;12.98;;;;;;;;;;5050262;28;20493;-78
2020/12/26 07:01:22;;;;;;;27.65;13.25;;;;;;;;;;5058526;28;20281;-78
2020/12/26 07:04:10;;;;;;;23.38;13.23;;;;;;;;;;5069280;28;20048;-77
2020/12/26 07:06:56;;;;;;;23.33;12.82;;;;;;;;;;5051826;28;20040;-76
2020/12/26 07:09:44;;;;;;;24.40;13.20;;;;;;;;;;5053871;28;20020;-76
2020/12/26 07:12:42;;;;;;;28.83;12.98;;;;;;;;;;5051363;28;20382;-76
2020/12/26 07:15:31;;;;;;;25.80;12.57;;;;;;;;;;5052355;28;20119;-77
2020/12/26 07:18:23;;;;;;;25.05;13.38;;;;;;;;;;5033911;28;20148;-76
2020/12/26 07:21:09;;;;;;;22.77;12.05;;;;;;;;;;5039781;28;20035;-76
2020/12/26 07:23:54;;;;;;;19.27;10.77;;;;;;;;;;5073551;28;20049;-76
2020/12/26 07:26:39;;;;;;;21.40;10.00;;;;;;;;;;5063743;28;20067;-76
2020/12/26 07:29:25;;;;;;;23.10;10.88;;;;;;;;;;5053139;28;20177;-78
2020/12/26 07:32:10;;;;;;;21.48;11.57;;;;;;;;;;5060532;28;20032;-76
2020/12/26 07:34:55;;;;;;;24.13;11.45;;;;;;;;;;5059362;28;20020;-76
2020/12/26 07:37:41;;;;;;;22.80;10.70;;;;;;;;;;5060839;28;20059;-77
2020/12/26 07:40:29;;;;;;;19.67;10.27;;;;;;;;;;5073015;28;20077;-76
2020/12/26 07:43:16;;;;;;;25.08;13.18;;;;;;;;;;5055339;28;20036;-76
2020/12/26 07:46:02;;;;;;;23.30;12.15;;;;;;;;;;5053090;28;20025;-77
2020/12/26 07:48:54;;;;;;;21.15;11.75;;;;;;;;;;5050360;28;20086;-77
2020/12/26 07:51:39;;;;;;;22.17;11.15;;;;;;;;;;5052913;28;20583;-77
2020/12/26 07:54:24;;;;;;;21.80;11.32;;;;;;;;;;5061301;28;20101;-77
2020/12/26 07:57:09;;;;;;;22.42;12.23;;;;;;;;;;5058816;28;20031;-77
2020/12/26 07:59:54;;;;;;;21.30;11.32;;;;;;;;;;5072466;28;20111;-77
2020/12/26 08:02:48;;;;;;;19.10;9.95;;;;;;;;;;5053954;28;20545;-77
2020/12/26 08:05:34;;;;;;;23.98;11.50;;;;;;;;;;5072577;28;20537;-79
2020/12/26 08:08:24;;;;;;;20.83;12.32;;;;;;;;;;5062739;28;20055;-75
2020/12/26 08:11:10;;;;;;;21.90;11.23;;;;;;;;;;5052297;28;20025;-79
2020/12/26 08:13:59;;;;;;;25.55;12.90;;;;;;;;;;5050335;28;20368;-79
2020/12/26 08:16:44;;;;;;;22.58;12.05;;;;;;;;;;5059413;28;20069;-77
2020/12/26 08:19:30;;;;;;;21.95;12.38;;;;;;;;;;5055503;28;20025;-77
2020/12/26 08:22:15;;;;;;;24.90;13.50;;;;;;;;;;5052148;28;20025;-77
2020/12/26 08:25:05;;;;;;;23.38;12.55;;;;;;;;;;5049621;28;20486;-76
2020/12/26 08:27:51;;;;;;;20.20;10.70;;;;;;;;;;5052334;28;20055;-77
2020/12/26 08:30:38;;;;;;;23.80;12.90;;;;;;;;;;5049971;28;20066;-77
2020/12/26 08:33:23;;;;;;;23.95;12.05;;;;;;;;;;5052438;28;20063;-77
2020/12/26 08:36:11;;;;;;;22.58;10.45;;;;;;;;;;5072288;28;20359;-76
2020/12/26 08:38:57;;;;;;;28.45;13.88;;;;;;;;;;5056631;28;20382;-76
2020/12/26 08:41:45;;;;;;;22.50;12.35;;;;;;;;;;5052144;28;20021;-78
2020/12/26 08:44:30;;;;;;;22.63;14.50;;;;;;;;;;5055285;28;20355;-77
2020/12/26 08:47:24;;;;;;;22.33;14.52;;;;;;;;;;5072201;28;20062;-78
2020/12/26 08:50:13;;;;;;;23.58;13.18;;;;;;;;;;5059968;28;20059;-78
2020/12/26 08:53:02;;;;;;;25.20;12.25;;;;;;;;;;5052091;28;20197;-78
2020/12/26 08:55:49;;;;;;;22.08;11.48;;;;;;;;;;5049059;28;20369;-78
2020/12/26 08:58:34;;;;;;;22.83;12.45;;;;;;;;;;5031523;28;20028;-78
2020/12/26 09:01:20;;;;;;;20.70;11.10;;;;;;;;;;5056482;28;20028;-78
2020/12/26 09:04:15;;;;;;;20.98;11.50;;;;;;;;;;5071163;28;20079;-77
2020/12/26 09:07:00;;;;;;;19.70;10.68;;;;;;;;;;5049615;28;20264;-78
2020/12/26 09:09:45;;;;;;;21.80;11.27;;;;;;;;;;5051493;28;20113;-78
2020/12/26 09:12:31;;;;;;;21.63;11.95;;;;;;;;;;5045469;28;20072;-78
2020/12/26 09:15:16;;;;;;;22.17;10.43;;;;;;;;;;5046864;28;20112;-78
2020/12/26 09:18:18;;;;;;;18.23;11.32;;;;;;;;;;5071063;28;20036;-79
2020/12/26 09:21:03;;;;;;;18.77;10.18;;;;;;;;;;5067626;28;20024;-79
2020/12/26 09:23:49;;;;;;;17.02;9.98;;;;;;;;;;5070936;28;20274;-78
2020/12/26 09:26:36;;;;;;;16.98;10.00;;;;;;;;;;5058995;28;20021;-78
2020/12/26 09:29:23;;;;;;;14.65;9.63;;;;;;;;;;5050926;28;20021;-79
2020/12/26 09:32:08;;;;;;;20.48;12.23;;;;;;;;;;5049107;28;20024;-78
2020/12/26 09:34:53;;;;;;;21.05;11.73;;;;;;;;;;5050786;28;20035;-77
2020/12/26 09:37:49;;;;;;;18.70;9.60;;;;;;;;;;5050656;28;20043;-78
2020/12/26 09:40:35;;;;;;;17.40;10.65;;;;;;;;;;5070620;28;20642;-78
2020/12/26 09:43:20;;;;;;;17.88;9.30;;;;;;;;;;5049180;28;20111;-77
2020/12/26 09:46:05;;;;;;;16.10;9.63;;;;;;;;;;5050563;28;20024;-79
2020/12/26 09:48:50;;;;;;;18.98;8.82;;;;;;;;;;5030737;28;20029;-76
2020/12/26 09:51:36;;;;;;;14.85;8.85;;;;;;;;;;5031040;28;20017;-77
2020/12/26 09:54:21;;;;;;;11.20;7.50;;;;;;;;;;5059309;28;20167;-77
2020/12/26 09:57:06;;;;;;;15.85;6.85;;;;;;;;;;5051897;28;20032;-77
2020/12/26 09:59:51;;;;;;;12.18;6.60;;;;;;;;;;5070445;28;20024;-76
2020/12/26 10:02:37;;;;;;;10.85;6.72;;;;;;;;;;5039918;28;20020;-76
2020/12/26 10:05:22;;;;;;;13.60;5.72;;;;;;;;;;5070153;28;20050;-77
2020/12/26 10:08:08;;;;;;;12.25;6.43;;;;;;;;;;5059114;28;20659;-78
2020/12/26 10:10:53;;;;;;;12.38;7.03;;;;;;;;;;5050383;28;20356;-79
2020/12/26 10:13:38;;;;;;;14.45;7.03;;;;;;;;;;5047351;28;20499;-78
2020/12/26 10:16:23;;;;;;;14.63;6.95;;;;;;;;;;5054768;28;20498;-80
2020/12/26 10:19:09;;;;;;;10.68;6.10;;;;;;;;;;5054098;28;20052;-77
2020/12/26 10:21:54;;;;;;;11.27;6.18;;;;;;;;;;5050503;28;20028;-77
2020/12/26 10:24:39;;;;;;;7.55;4.68;;;;;;;;;;5048182;28;20106;-79
2020/12/26 10:27:24;;;;;;;13.50;6.50;;;;;;;;;;5050063;28;20067;-78
2020/12/26 10:30:09;;;;;;;8.77;5.13;;;;;;;;;;5047903;28;20036;-78
2020/12/26 10:32:55;;;;;;;9.02;5.15;;;;;;;;;;5050270;28;20020;-78
2020/12/26 10:35:41;;;;;;;8.82;5.68;;;;;;;;;;5070175;28;20085;-77
2020/12/26 10:38:26;;;;;;;9.65;4.53;;;;;;;;;;5067630;28;20100;-78
2020/12/26 10:41:11;;;;;;;10.32;5.32;;;;;;;;;;5070247;28;20088;-78
2020/12/26 10:43:56;;;;;;;8.77;5.40;;;;;;;;;;5071884;28;20055;-78
2020/12/26 10:46:42;;;;;;;9.15;5.25;;;;;;;;;;5058796;28;20031;-78
2020/12/26 10:49:27;;;;;;;8.23;4.90;;;;;;;;;;5058028;28;20028;-78
2020/12/26 10:52:13;;;;;;;10.77;5.65;;;;;;;;;;5074557;28;20032;-78
2020/12/26 10:54:58;;;;;;;11.25;4.50;;;;;;;;;;5055236;28;20048;-77
2020/12/26 10:57:44;;;;;;;8.73;5.05;;;;;;;;;;5053929;28;20479;-77
2020/12/26 11:00:29;;;;;;;8.30;5.28;;;;;;;;;;5063439;28;20030;-77
2020/12/26 11:03:14;;;;;;;8.05;4.63;;;;;;;;;;5074387;28;20446;-78
2020/12/26 11:05:59;;;;;;;9.82;5.72;;;;;;;;;;5085085;28;20051;-77
2020/12/26 11:08:45;;;;;;;10.32;5.25;;;;;;;;;;5073990;28;20036;-77
2020/12/26 11:11:30;;;;;;;8.13;4.68;;;;;;;;;;5054520;28;20366;-76
2020/12/26 11:14:15;;;;;;;9.68;5.32;;;;;;;;;;5053824;28;20054;-77
2020/12/26 11:17:00;;;;;;;9.77;4.50;;;;;;;;;;5060796;28;20032;-77
2020/12/26 11:19:46;;;;;;;8.45;4.65;;;;;;;;;;5073699;28;20051;-77
2020/12/26 11:22:31;;;;;;;10.05;5.38;;;;;;;;;;5033420;28;20024;-77
2020/12/26 11:25:16;;;;;;;8.43;4.75;;;;;;;;;;5034978;28;20257;-76
2020/12/26 11:28:02;;;;;;;9.40;4.43;;;;;;;;;;5073443;28;20120;-77
2020/12/26 11:30:47;;;;;;;10.70;5.68;;;;;;;;;;5071102;28;20024;-77
2020/12/26 11:33:32;;;;;;;7.40;4.30;;;;;;;;;;5073460;28;20024;-77
2020/12/26 11:36:18;;;;;;;7.35;4.60;;;;;;;;;;5069602;28;20081;-76
2020/12/26 11:39:03;;;;;;;9.15;4.70;;;;;;;;;;5058382;28;20074;-77
2020/12/26 11:41:48;;;;;;;8.57;4.38;;;;;;;;;;5050719;28;20103;-77
2020/12/26 11:44:34;;;;;;;10.10;5.35;;;;;;;;;;5052839;28;20584;-78
2020/12/26 11:47:19;;;;;;;9.13;4.80;;;;;;;;;;5042681;28;20357;-77
2020/12/26 11:50:04;;;;;;;8.30;4.70;;;;;;;;;;5052517;28;20496;-76
2020/12/26 11:52:49;;;;;;;9.13;4.82;;;;;;;;;;5050249;28;20059;-77
2020/12/26 11:55:34;;;;;;;8.25;4.72;;;;;;;;;;5052330;28;20020;-77
2020/12/26 11:58:23;;;;;;;8.88;4.70;;;;;;;;;;5066824;28;20126;-78
2020/12/26 12:01:09;;;;;;;12.48;4.97;;;;;;;;;;5072528;28;20035;-76
2020/12/26 12:03:54;;;;;;;8.88;4.45;;;;;;;;;;5051409;28;20553;-76
2020/12/26 12:06:39;;;;;;;10.90;5.53;;;;;;;;;;5052495;28;20116;-77
2020/12/26 12:09:24;;;;;;;9.88;6.05;;;;;;;;;;5072494;28;20068;-76
2020/12/26 12:12:09;;;;;;;9.10;5.05;;;;;;;;;;5070440;28;20024;-77
2020/12/26 12:14:55;;;;;;;10.25;5.60;;;;;;;;;;5072709;28;20095;-77
2020/12/26 12:17:40;;;;;;;11.18;5.47;;;;;;;;;;5068602;28;20024;-76
2020/12/26 12:20:29;;;;;;;9.25;5.63;;;;;;;;;;5072539;28;20067;-77
2020/12/26 12:23:14;;;;;;;12.32;6.10;;;;;;;;;;5061665;28;20024;-77
2020/12/26 12:25:59;;;;;;;9.88;5.55;;;;;;;;;;5052404;28;20024;-77
2020/12/26 12:28:44;;;;;;;10.27;5.93;;;;;;;;;;5054961;28;20032;-77
2020/12/26 12:31:35;;;;;;;11.48;5.03;;;;;;;;;;5071982;28;20024;-77
2020/12/26 12:34:22;;;;;;;10.32;4.50;;;;;;;;;;5070095;28;20038;-78
2020/12/26 12:37:08;;;;;;;10.02;5.10;;;;;;;;;;5070494;28;20055;-79
2020/12/26 12:39:54;;;;;;;11.07;4.97;;;;;;;;;;5060640;28;20481;-78
2020/12/26 12:42:39;;;;;;;11.50;5.55;;;;;;;;;;5071799;28;20037;-77
2020/12/26 12:45:24;;;;;;;11.38;5.93;;;;;;;;;;5064745;28;20383;-77
2020/12/26 12:48:09;;;;;;;10.70;5.63;;;;;;;;;;5043208;28;20536;-78
2020/12/26 12:50:55;;;;;;;10.55;5.90;;;;;;;;;;5068319;28;20475;-77
2020/12/26 12:53:40;;;;;;;16.90;6.03;;;;;;;;;;5065174;28;20039;-78
2020/12/26 12:56:29;;;;;;;10.15;5.30;;;;;;;;;;5071797;28;20024;-77
2020/12/26 12:59:14;;;;;;;9.50;6.23;;;;;;;;;;5061252;28;20553;-77
2020/12/26 13:01:59;;;;;;;9.73;4.93;;;;;;;;;;5068297;28;20028;-76
2020/12/26 13:04:44;;;;;;;9.18;5.93;;;;;;;;;;5068035;28;20040;-76
2020/12/26 13:07:30;;;;;;;10.23;6.03;;;;;;;;;;5071839;28;20031;-77
2020/12/26 13:10:15;;;;;;;11.77;5.30;;;;;;;;;;5069291;28;20032;-77
2020/12/26 13:13:00;;;;;;;7.97;4.38;;;;;;;;;;5071560;28;20035;-77
2020/12/26 13:15:45;;;;;;;10.52;4.78;;;;;;;;;;5068872;28;20032;-76
2020/12/26 13:18:30;;;;;;;10.73;5.05;;;;;;;;;;5039336;28;20075;-77
2020/12/26 13:21:20;;;;;;;9.40;5.10;;;;;;;;;;5057782;28;20055;-77
2020/12/26 13:24:05;;;;;;;10.10;4.55;;;;;;;;;;5071555;28;20370;-78
2020/12/26 13:26:51;;;;;;;9.50;5.40;;;;;;;;;;5064305;28;20036;-77
2020/12/26 13:29:36;;;;;;;12.30;4.45;;;;;;;;;;5071080;28;20031;-78
2020/12/26 13:32:21;;;;;;;7.50;4.80;;;;;;;;;;5070525;28;20119;-77
2020/12/26 13:35:06;;;;;;;9.15;5.32;;;;;;;;;;5069783;28;20016;-78
2020/12/26 13:37:51;;;;;;;18.80;6.55;;;;;;;;;;5084235;28;20023;-76
2020/12/26 13:40:36;;;;;;;13.50;5.38;;;;;;;;;;5067702;28;20051;-79
2020/12/26 13:43:21;;;;;;;9.60;5.57;;;;;;;;;;5070695;28;20096;-76
2020/12/26 13:46:07;;;;;;;9.15;5.22;;;;;;;;;;5062998;28;20027;-79
2020/12/26 13:48:52;;;;;;;9.60;4.80;;;;;;;;;;5070883;28;20046;-78
2020/12/26 13:51:41;;;;;;;9.10;4.50;;;;;;;;;;5060359;28;20426;-78
2020/12/26 13:54:28;;;;;;;17.10;5.10;;;;;;;;;;5050268;28;20462;-78
2020/12/26 13:57:13;;;;;;;9.45;4.57;;;;;;;;;;5048115;28;20028;-77
2020/12/26 13:59:58;;;;;;;10.10;4.30;;;;;;;;;;5051345;28;20475;-76
2020/12/26 14:02:43;;;;;;;9.15;4.13;;;;;;;;;;5054715;28;20402;-77
2020/12/26 14:05:29;;;;;;;9.75;4.85;;;;;;;;;;5050356;28;20048;-77
2020/12/26 14:08:14;;;;;;;12.82;6.53;;;;;;;;;;5048356;28;20066;-80
2020/12/26 14:10:59;;;;;;;7.80;4.80;;;;;;;;;;5049837;28;20036;-78
2020/12/26 14:13:44;;;;;;;13.52;5.43;;;;;;;;;;5034093;28;20070;-78
2020/12/26 14:16:29;;;;;;;7.18;4.28;;;;;;;;;;5054987;28;20482;-77
2020/12/26 14:19:15;;;;;;;9.13;4.25;;;;;;;;;;5030354;28;20120;-76
2020/12/26 14:22:02;;;;;;;9.15;4.35;;;;;;;;;;5030297;28;20037;-77
2020/12/26 14:24:47;;;;;;;7.38;4.57;;;;;;;;;;5070516;28;20046;-76
2020/12/26 14:27:32;;;;;;;7.10;4.07;;;;;;;;;;5068231;28;20036;-77
2020/12/26 14:30:17;;;;;;;14.15;4.88;;;;;;;;;;5070390;28;20028;-78
2020/12/26 14:33:02;;;;;;;12.57;3.63;;;;;;;;;;5067462;28;20056;-76
2020/12/26 14:35:48;;;;;;;8.32;4.00;;;;;;;;;;5070276;28;20567;-76
2020/12/26 14:38:33;;;;;;;8.60;3.78;;;;;;;;;;5059459;28;20590;-76
2020/12/26 14:41:18;;;;;;;7.50;3.70;;;;;;;;;;5050441;28;20103;-76
2020/12/26 14:44:04;;;;;;;8.07;3.65;;;;;;;;;;5048163;28;20396;-77
2020/12/26 14:46:49;;;;;;;8.23;4.25;;;;;;;;;;5049875;28;20451;-77
2020/12/26 14:49:35;;;;;;;7.90;4.07;;;;;;;;;;5047625;28;20479;-76
2020/12/26 14:52:20;;;;;;;5.90;3.70;;;;;;;;;;5050162;28;20024;-77
2020/12/26 14:55:05;;;;;;;6.97;3.67;;;;;;;;;;5046457;28;20039;-78
2020/12/26 14:57:50;;;;;;;7.50;4.20;;;;;;;;;;5049475;28;20025;-77
2020/12/26 15:00:36;;;;;;;10.40;4.03;;;;;;;;;;5053508;28;20058;-79
2020/12/26 15:03:21;;;;;;;9.60;4.10;;;;;;;;;;5070368;28;20474;-79
2020/12/26 15:06:06;;;;;;;8.73;4.88;;;;;;;;;;5069882;28;20569;-77
2020/12/26 15:08:51;;;;;;;8.18;4.63;;;;;;;;;;5067144;28;20474;-77
2020/12/26 15:11:37;;;;;;;7.95;4.57;;;;;;;;;;5070060;28;20023;-77
2020/12/26 15:14:22;;;;;;;7.97;4.38;;;;;;;;;;5067623;28;20399;-77
2020/12/26 15:17:07;;;;;;;8.30;4.00;;;;;;;;;;5069013;28;20519;-77
2020/12/26 15:19:52;;;;;;;7.80;3.97;;;;;;;;;;5067080;28;20463;-77
2020/12/26 15:22:37;;;;;;;7.63;3.95;;;;;;;;;;5069741;28;20021;-77
2020/12/26 15:25:23;;;;;;;7.03;4.45;;;;;;;;;;5058269;28;20056;-77
2020/12/26 15:28:08;;;;;;;7.95;4.28;;;;;;;;;;5050451;28;20024;-77
2020/12/26 15:30:53;;;;;;;10.13;4.40;;;;;;;;;;5050902;28;20032;-77
2020/12/26 15:33:38;;;;;;;7.95;4.75;;;;;;;;;;5053376;28;20082;-79
2020/12/26 15:36:24;;;;;;;12.65;4.80;;;;;;;;;;5051201;28;20032;-77
2020/12/26 15:39:09;;;;;;;6.78;4.10;;;;;;;;;;5068430;28;20024;-76
2020/12/26 15:41:54;;;;;;;7.72;4.80;;;;;;;;;;5054283;28;20059;-77
2020/12/26 15:44:39;;;;;;;8.18;4.18;;;;;;;;;;5053251;28;20119;-77
2020/12/26 15:47:24;;;;;;;10.98;4.72;;;;;;;;;;5063899;28;20020;-76
2020/12/26 15:50:10;;;;;;;10.70;4.82;;;;;;;;;;5057527;28;20063;-77
2020/12/26 15:52:55;;;;;;;9.30;5.13;;;;;;;;;;5073281;28;20359;-77
2020/12/26 15:55:40;;;;;;;9.35;5.13;;;;;;;;;;5047097;28;20025;-77
2020/12/26 15:58:25;;;;;;;9.13;4.63;;;;;;;;;;5053690;28;20040;-78
2020/12/26 16:01:10;;;;;;;21.33;11.23;;;;;;;;;;5054143;28;20032;-77
2020/12/26 16:03:55;;;;;;;10.45;5.57;;;;;;;;;;5072662;28;20016;-76
2020/12/26 16:06:41;;;;;;;7.28;4.68;;;;;;;;;;5069705;28;20032;-76
2020/12/26 16:09:26;;;;;;;11.20;4.60;;;;;;;;;;5072524;28;20020;-76
2020/12/26 16:12:11;;;;;;;9.00;5.07;;;;;;;;;;5061619;28;20025;-76
2020/12/26 16:14:56;;;;;;;11.77;4.82;;;;;;;;;;5052855;28;20028;-77
2020/12/26 16:17:41;;;;;;;9.07;5.22;;;;;;;;;;5053691;28;20063;-79
2020/12/26 16:20:27;;;;;;;14.50;5.47;;;;;;;;;;5052574;28;20197;-78